KMNN/MNN METAR and TAF weather

Enter ICAO airport designator
Station Type Date Time Source
KMNN METAR 2019/08/22 08:53 UTC NOAA

KMNN 220853Z AUTO 00000KT 10SM FEW100 20/18 A2996 RMK AO2 SLP138 T02000183 58004


Station Type Date Time Source
KMNN Decoded METAR 2019/08/22 08:53 UTC NOAA

Station name not available
Aug 22, 2019 - 04:53 AM EDT / 2019.08.22 0853 UTC
Wind: Calm:0
Visibility: 10 mile(s):0
Sky conditions: mostly clear
Temperature: 68.0 F (20.0 C)
Dew Point: 64.9 F (18.3 C)
Relative Humidity: 89%
Pressure (altimeter): 29.96 in. Hg (1014 hPa)
Pressure tendency: 0.01 inches (0.4 hPa) lower than three hours ago
ob: KMNN 220853Z AUTO 00000KT 10SM FEW100 20/18 A2996 RMK AO2 SLP138 T02000183 58004
cycle: 9

Station Type Date Time Source
KMNN TAF UTC NOAA

Error!

Example: see airport list